SDM601 UUWW-UWGG
Flight info
| Callsign | SDM601 |
|---|---|
| Flight time | 0h 49m |
| Altitude | 33000 |
| Route | KOGOM3D KOGOM L94 USTOK USTOK2P |
| Aircraft | A320/M-SDE3FGHIRWY/LB1 |
Departure
| Time | 2026-04-24 19:47 |
|---|---|
| Airport | Vnukovo International Airport (UUWW) |
Arrival
| Time | 2026-04-24 20:37 |
|---|---|
| Airport | Nizhny Novgorod / Strigino International Airport (UWGG) |
| Time | Latitude | Longitude | Altitude | Speed | Heading |
|---|---|---|---|---|---|
| 2026-04-24 19:14 | 55.60008 | 37.28098 | 678 ft | 0 kts | 4° |
| 2026-04-24 19:42 | 55.60032 | 37.28102 | 680 ft | 13 kts | 7° |
| 2026-04-24 19:42 | 55.60079 | 37.28227 | 680 ft | 12 kts | 80° |
| 2026-04-24 19:43 | 55.60089 | 37.28389 | 679 ft | 15 kts | 83° |
| 2026-04-24 19:43 | 55.60094 | 37.28418 | 679 ft | 0 kts | 68° |
| 2026-04-24 19:43 | 55.60112 | 37.28465 | 679 ft | 13 kts | 51° |
| 2026-04-24 19:43 | 55.60175 | 37.28587 | 679 ft | 13 kts | 46° |
| 2026-04-24 19:44 | 55.60207 | 37.28708 | 679 ft | 10 kts | 104° |
| 2026-04-24 19:44 | 55.60163 | 37.28795 | 679 ft | 12 kts | 136° |
| 2026-04-24 19:44 | 55.60094 | 37.28878 | 679 ft | 11 kts | 163° |
| 2026-04-24 19:44 | 55.60029 | 37.28907 | 682 ft | 7 kts | 167° |
| 2026-04-24 19:45 | 55.59955 | 37.28938 | 685 ft | 13 kts | 165° |
| 2026-04-24 19:45 | 55.59939 | 37.28945 | 679 ft | 0 kts | 165° |
| 2026-04-24 19:45 | 55.59890 | 37.28967 | 685 ft | 24 kts | 166° |
| 2026-04-24 19:45 | 55.59782 | 37.28934 | 689 ft | 8 kts | 243° |
| 2026-04-24 19:46 | 55.59779 | 37.28923 | 688 ft | 0 kts | 245° |
| 2026-04-24 19:46 | 55.59773 | 37.28899 | 687 ft | 12 kts | 247° |
| 2026-04-24 19:46 | 55.59644 | 37.28317 | 683 ft | 85 kts | 249° |
| 2026-04-24 19:46 | 55.59352 | 37.27007 | 669 ft | 142 kts | 248° |
| 2026-04-24 19:47 | 55.58959 | 37.25263 | 1087 ft | 149 kts | 249° |
| 2026-04-24 19:47 | 55.58362 | 37.23707 | 1687 ft | 158 kts | 233° |
| 2026-04-24 19:47 | 55.57692 | 37.22184 | 2295 ft | 157 kts | 242° |
| 2026-04-24 19:47 | 55.57047 | 37.20502 | 2672 ft | 176 kts | 242° |
| 2026-04-24 19:48 | 55.56327 | 37.18590 | 2943 ft | 198 kts | 242° |
| 2026-04-24 19:48 | 55.55510 | 37.16438 | 3230 ft | 222 kts | 241° |
| 2026-04-24 19:48 | 55.54806 | 37.11320 | 4695 ft | 219 kts | 275° |
| 2026-04-24 19:49 | 55.54846 | 37.05869 | 6282 ft | 224 kts | 284° |
| 2026-04-24 19:49 | 55.55982 | 37.02857 | 6920 ft | 223 kts | 333° |
| 2026-04-24 19:50 | 55.59751 | 37.02218 | 7004 ft | 230 kts | 360° |
| 2026-04-24 19:50 | 55.61354 | 37.02333 | 7010 ft | 231 kts | 1° |
| 2026-04-24 19:51 | 55.64006 | 37.05359 | 7031 ft | 258 kts | 62° |
| 2026-04-24 19:51 | 55.64301 | 37.08600 | 7569 ft | 280 kts | 85° |
| 2026-04-24 19:52 | 55.64310 | 37.15617 | 9239 ft | 289 kts | 87° |
| 2026-04-24 19:52 | 55.64255 | 37.19239 | 10043 ft | 294 kts | 94° |
| 2026-04-24 19:52 | 55.63783 | 37.22810 | 10811 ft | 301 kts | 105° |
| 2026-04-24 19:52 | 55.63127 | 37.26347 | 11587 ft | 304 kts | 105° |
| 2026-04-24 19:53 | 55.62470 | 37.29914 | 12328 ft | 308 kts | 105° |
| 2026-04-24 19:53 | 55.61804 | 37.33540 | 13079 ft | 311 kts | 105° |
| 2026-04-24 19:53 | 55.60452 | 37.40913 | 14427 ft | 319 kts | 105° |
| 2026-04-24 19:54 | 55.59763 | 37.44659 | 15075 ft | 322 kts | 105° |
| 2026-04-24 19:54 | 55.59065 | 37.48449 | 15721 ft | 325 kts | 104° |
| 2026-04-24 19:54 | 55.58365 | 37.52265 | 16339 ft | 329 kts | 104° |
| 2026-04-24 19:54 | 55.57739 | 37.56166 | 16981 ft | 330 kts | 96° |
| 2026-04-24 19:55 | 55.57630 | 37.57461 | 17184 ft | 329 kts | 91° |
| 2026-04-24 19:55 | 55.57931 | 37.64120 | 18194 ft | 324 kts | 68° |
| 2026-04-24 19:55 | 55.58760 | 37.67783 | 18757 ft | 319 kts | 55° |
| 2026-04-24 19:55 | 55.59858 | 37.71112 | 19349 ft | 319 kts | 53° |
| 2026-04-24 19:56 | 55.60977 | 37.74501 | 19962 ft | 320 kts | 53° |
| 2026-04-24 19:56 | 55.62098 | 37.77922 | 20571 ft | 321 kts | 53° |
| 2026-04-24 19:56 | 55.63208 | 37.81357 | 21173 ft | 324 kts | 56° |
| 2026-04-24 19:56 | 55.64035 | 37.85119 | 21756 ft | 335 kts | 68° |
| 2026-04-24 19:57 | 55.64377 | 37.89266 | 22330 ft | 348 kts | 81° |
| 2026-04-24 19:57 | 55.64159 | 37.93607 | 22910 ft | 361 kts | 96° |
| 2026-04-24 19:57 | 55.63597 | 37.97959 | 23382 ft | 365 kts | 96° |
| 2026-04-24 19:57 | 55.63030 | 38.02348 | 23808 ft | 368 kts | 96° |
| 2026-04-24 19:58 | 55.62459 | 38.06781 | 24223 ft | 371 kts | 95° |
| 2026-04-24 19:58 | 55.61884 | 38.11245 | 24628 ft | 374 kts | 95° |
| 2026-04-24 19:58 | 55.61305 | 38.15755 | 25020 ft | 378 kts | 95° |
| 2026-04-24 19:58 | 55.60722 | 38.20372 | 25143 ft | 390 kts | 95° |
| 2026-04-24 19:59 | 55.60126 | 38.25115 | 25295 ft | 402 kts | 95° |
| 2026-04-24 19:59 | 55.59720 | 38.28331 | 25474 ft | 406 kts | 95° |
| 2026-04-24 19:59 | 55.58896 | 38.34892 | 25960 ft | 410 kts | 92° |
| 2026-04-24 19:59 | 55.58598 | 38.39864 | 26334 ft | 403 kts | 82° |
| 2026-04-24 20:00 | 55.58660 | 38.43109 | 26578 ft | 398 kts | 75° |
| 2026-04-24 20:00 | 55.59125 | 38.47882 | 26950 ft | 390 kts | 65° |
| 2026-04-24 20:00 | 55.60002 | 38.52363 | 27335 ft | 382 kts | 56° |
| 2026-04-24 20:00 | 55.61235 | 38.56465 | 27726 ft | 376 kts | 50° |
| 2026-04-24 20:01 | 55.62581 | 38.60469 | 28058 ft | 381 kts | 51° |
| 2026-04-24 20:01 | 55.63937 | 38.64532 | 28363 ft | 385 kts | 51° |
| 2026-04-24 20:01 | 55.65293 | 38.68624 | 28738 ft | 388 kts | 52° |
| 2026-04-24 20:01 | 55.66666 | 38.72784 | 28996 ft | 393 kts | 52° |
| 2026-04-24 20:02 | 55.68050 | 38.76986 | 29320 ft | 396 kts | 52° |
| 2026-04-24 20:02 | 55.69437 | 38.81217 | 29669 ft | 399 kts | 52° |
| 2026-04-24 20:02 | 55.70834 | 38.85489 | 29953 ft | 401 kts | 52° |
| 2026-04-24 20:02 | 55.72238 | 38.89790 | 30217 ft | 403 kts | 52° |
| 2026-04-24 20:03 | 55.73785 | 38.93888 | 30468 ft | 399 kts | 44° |
| 2026-04-24 20:03 | 55.75632 | 38.97536 | 30713 ft | 397 kts | 40° |
| 2026-04-24 20:03 | 55.77542 | 39.01112 | 30961 ft | 400 kts | 40° |
| 2026-04-24 20:03 | 55.79465 | 39.04723 | 31206 ft | 403 kts | 40° |
| 2026-04-24 20:04 | 55.81393 | 39.08355 | 31441 ft | 405 kts | 41° |
| 2026-04-24 20:04 | 55.83326 | 39.12011 | 31704 ft | 409 kts | 43° |
| 2026-04-24 20:04 | 55.85092 | 39.16064 | 31845 ft | 420 kts | 52° |
| 2026-04-24 20:04 | 55.86505 | 39.20685 | 31977 ft | 430 kts | 58° |
| 2026-04-24 20:05 | 55.87839 | 39.25494 | 32105 ft | 434 kts | 58° |
| 2026-04-24 20:05 | 55.89188 | 39.30342 | 32236 ft | 438 kts | 58° |
| 2026-04-24 20:05 | 55.90545 | 39.35213 | 32368 ft | 442 kts | 58° |
| 2026-04-24 20:05 | 55.91902 | 39.40094 | 32541 ft | 444 kts | 58° |
| 2026-04-24 20:06 | 55.93290 | 39.45092 | 32598 ft | 443 kts | 58° |
| 2026-04-24 20:06 | 55.95975 | 39.54857 | 32598 ft | 441 kts | 58° |
| 2026-04-24 20:07 | 55.98233 | 39.63096 | 32617 ft | 441 kts | 59° |
| 2026-04-24 20:07 | 56.01455 | 39.74514 | 32595 ft | 443 kts | 57° |
| 2026-04-24 20:08 | 56.04366 | 39.84215 | 32593 ft | 443 kts | 57° |
| 2026-04-24 20:08 | 56.07275 | 39.93919 | 32590 ft | 443 kts | 57° |
| 2026-04-24 20:09 | 56.10144 | 40.03678 | 32587 ft | 443 kts | 57° |
| 2026-04-24 20:09 | 56.12988 | 40.13472 | 32606 ft | 443 kts | 58° |
| 2026-04-24 20:10 | 56.15837 | 40.23293 | 32580 ft | 444 kts | 58° |
| 2026-04-24 20:10 | 56.18678 | 40.33116 | 32590 ft | 444 kts | 59° |
| 2026-04-24 20:11 | 56.21511 | 40.42997 | 32575 ft | 445 kts | 59° |
| 2026-04-24 20:11 | 56.24318 | 40.52934 | 32572 ft | 447 kts | 62° |
| 2026-04-24 20:12 | 56.25930 | 40.63823 | 32568 ft | 457 kts | 81° |
| 2026-04-24 20:12 | 56.25763 | 40.75295 | 32571 ft | 462 kts | 91° |
| 2026-04-24 20:13 | 56.25286 | 40.86833 | 32565 ft | 462 kts | 91° |
| 2026-04-24 20:13 | 56.24809 | 40.98271 | 32558 ft | 463 kts | 91° |
| 2026-04-24 20:14 | 56.24315 | 41.09818 | 32546 ft | 463 kts | 91° |
| 2026-04-24 20:14 | 56.23810 | 41.21390 | 32551 ft | 465 kts | 92° |
| 2026-04-24 20:15 | 56.23288 | 41.32980 | 32545 ft | 466 kts | 92° |
| 2026-04-24 20:15 | 56.22758 | 41.44579 | 31655 ft | 469 kts | 92° |
| 2026-04-24 20:15 | 56.22489 | 41.50492 | 30377 ft | 478 kts | 92° |
| 2026-04-24 20:16 | 56.22217 | 41.56430 | 29536 ft | 476 kts | 92° |
| 2026-04-24 20:16 | 56.21940 | 41.62304 | 28391 ft | 466 kts | 93° |
| 2026-04-24 20:16 | 56.21664 | 41.68041 | 27130 ft | 457 kts | 94° |
| 2026-04-24 20:16 | 56.21391 | 41.73680 | 25937 ft | 448 kts | 95° |
| 2026-04-24 20:17 | 56.21118 | 41.79206 | 24825 ft | 440 kts | 96° |
| 2026-04-24 20:17 | 56.20585 | 41.89962 | 22688 ft | 425 kts | 97° |
| 2026-04-24 20:17 | 56.20361 | 41.94477 | 21890 ft | 414 kts | 96° |
| 2026-04-24 20:18 | 56.20223 | 41.97158 | 21759 ft | 400 kts | 97° |
| 2026-04-24 20:18 | 56.20103 | 41.99640 | 21581 ft | 388 kts | 96° |
| 2026-04-24 20:19 | 56.19872 | 42.04361 | 21165 ft | 370 kts | 97° |
| 2026-04-24 20:19 | 56.19644 | 42.08891 | 20736 ft | 363 kts | 96° |
| 2026-04-24 20:19 | 56.19409 | 42.13412 | 20317 ft | 363 kts | 97° |
| 2026-04-24 20:19 | 56.19170 | 42.17905 | 19878 ft | 361 kts | 97° |
| 2026-04-24 20:20 | 56.18928 | 42.22380 | 19432 ft | 359 kts | 97° |
| 2026-04-24 20:20 | 56.18685 | 42.26820 | 18994 ft | 357 kts | 97° |
| 2026-04-24 20:20 | 56.18442 | 42.31239 | 18529 ft | 356 kts | 97° |
| 2026-04-24 20:20 | 56.18201 | 42.35654 | 18083 ft | 354 kts | 96° |
| 2026-04-24 20:21 | 56.17960 | 42.40045 | 17612 ft | 354 kts | 97° |
| 2026-04-24 20:21 | 56.17716 | 42.44435 | 17128 ft | 352 kts | 97° |
| 2026-04-24 20:21 | 56.17473 | 42.48785 | 16671 ft | 350 kts | 96° |
| 2026-04-24 20:21 | 56.17230 | 42.53120 | 16215 ft | 348 kts | 96° |
| 2026-04-24 20:22 | 56.16989 | 42.57377 | 15757 ft | 346 kts | 97° |
| 2026-04-24 20:22 | 56.16746 | 42.61665 | 15302 ft | 345 kts | 96° |
| 2026-04-24 20:22 | 56.16503 | 42.65929 | 14856 ft | 343 kts | 96° |
| 2026-04-24 20:22 | 56.16259 | 42.70192 | 14402 ft | 342 kts | 96° |
| 2026-04-24 20:23 | 56.16015 | 42.74430 | 13961 ft | 341 kts | 96° |
| 2026-04-24 20:23 | 56.15769 | 42.78664 | 13505 ft | 341 kts | 96° |
| 2026-04-24 20:23 | 56.15522 | 42.82881 | 13022 ft | 340 kts | 96° |
| 2026-04-24 20:23 | 56.15275 | 42.87079 | 12549 ft | 338 kts | 96° |
| 2026-04-24 20:24 | 56.15112 | 42.89861 | 12246 ft | 336 kts | 96° |
| 2026-04-24 20:24 | 56.14782 | 42.95398 | 11635 ft | 333 kts | 96° |
| 2026-04-24 20:24 | 56.14532 | 42.99520 | 11166 ft | 331 kts | 97° |
| 2026-04-24 20:24 | 56.14282 | 43.03611 | 10699 ft | 330 kts | 97° |
| 2026-04-24 20:25 | 56.14030 | 43.07689 | 10224 ft | 328 kts | 97° |
| 2026-04-24 20:25 | 56.13782 | 43.11726 | 9902 ft | 322 kts | 97° |
| 2026-04-24 20:25 | 56.13542 | 43.15644 | 9771 ft | 310 kts | 97° |
| 2026-04-24 20:25 | 56.13100 | 43.19332 | 9632 ft | 298 kts | 110° |
| 2026-04-24 20:26 | 56.12195 | 43.22594 | 9497 ft | 289 kts | 125° |
| 2026-04-24 20:26 | 56.10899 | 43.25307 | 9423 ft | 287 kts | 139° |
| 2026-04-24 20:26 | 56.09392 | 43.27667 | 8997 ft | 288 kts | 140° |
| 2026-04-24 20:26 | 56.07882 | 43.29993 | 8606 ft | 285 kts | 141° |
| 2026-04-24 20:27 | 56.06381 | 43.32297 | 8215 ft | 283 kts | 140° |
| 2026-04-24 20:27 | 56.04896 | 43.34571 | 7827 ft | 280 kts | 141° |
| 2026-04-24 20:27 | 56.03416 | 43.36835 | 7471 ft | 278 kts | 140° |
| 2026-04-24 20:27 | 56.01948 | 43.39079 | 7102 ft | 277 kts | 141° |
| 2026-04-24 20:28 | 56.00493 | 43.41309 | 6737 ft | 274 kts | 141° |
| 2026-04-24 20:28 | 55.99179 | 43.43717 | 6478 ft | 268 kts | 127° |
| 2026-04-24 20:28 | 55.98305 | 43.46542 | 6458 ft | 253 kts | 111° |
| 2026-04-24 20:28 | 55.97829 | 43.49540 | 6002 ft | 256 kts | 104° |
| 2026-04-24 20:29 | 55.97565 | 43.51624 | 5548 ft | 263 kts | 103° |
| 2026-04-24 20:29 | 55.97033 | 43.55922 | 4984 ft | 262 kts | 102° |
| 2026-04-24 20:29 | 55.96656 | 43.59002 | 4924 ft | 247 kts | 102° |
| 2026-04-24 20:29 | 55.96496 | 43.61970 | 4735 ft | 236 kts | 85° |
| 2026-04-24 20:30 | 55.96841 | 43.64793 | 4456 ft | 232 kts | 67° |
| 2026-04-24 20:30 | 55.97636 | 43.67248 | 4079 ft | 225 kts | 50° |
| 2026-04-24 20:30 | 55.98758 | 43.69087 | 3655 ft | 214 kts | 32° |
| 2026-04-24 20:30 | 56.00054 | 43.70191 | 3398 ft | 198 kts | 17° |
| 2026-04-24 20:31 | 56.01340 | 43.70711 | 3091 ft | 182 kts | 12° |
| 2026-04-24 20:31 | 56.02534 | 43.71143 | 2831 ft | 168 kts | 11° |
| 2026-04-24 20:31 | 56.03637 | 43.71543 | 2594 ft | 156 kts | 11° |
| 2026-04-24 20:31 | 56.04658 | 43.71913 | 2379 ft | 144 kts | 13° |
| 2026-04-24 20:32 | 56.05605 | 43.72256 | 2233 ft | 134 kts | 11° |
| 2026-04-24 20:32 | 56.06513 | 43.72586 | 2210 ft | 132 kts | 11° |
| 2026-04-24 20:32 | 56.07413 | 43.72912 | 2178 ft | 131 kts | 11° |
| 2026-04-24 20:32 | 56.08306 | 43.73236 | 2141 ft | 131 kts | 11° |
| 2026-04-24 20:33 | 56.09199 | 43.73560 | 2094 ft | 131 kts | 10° |
| 2026-04-24 20:33 | 56.10091 | 43.73883 | 2039 ft | 131 kts | 10° |
| 2026-04-24 20:33 | 56.10969 | 43.74202 | 1973 ft | 130 kts | 9° |
| 2026-04-24 20:33 | 56.11859 | 43.74526 | 1917 ft | 131 kts | 8° |
| 2026-04-24 20:34 | 56.12759 | 43.74853 | 1899 ft | 130 kts | 8° |
| 2026-04-24 20:34 | 56.13641 | 43.75173 | 1835 ft | 131 kts | 8° |
| 2026-04-24 20:34 | 56.14530 | 43.75497 | 1831 ft | 130 kts | 8° |
| 2026-04-24 20:34 | 56.15419 | 43.75831 | 1748 ft | 131 kts | 9° |
| 2026-04-24 20:35 | 56.16309 | 43.76164 | 1467 ft | 130 kts | 7° |
| 2026-04-24 20:35 | 56.17195 | 43.76491 | 1204 ft | 130 kts | 7° |
| 2026-04-24 20:35 | 56.18083 | 43.76810 | 951 ft | 130 kts | 7° |
| 2026-04-24 20:35 | 56.18969 | 43.77140 | 780 ft | 131 kts | 8° |
| 2026-04-24 20:36 | 56.19880 | 43.77444 | 633 ft | 132 kts | 8° |
| 2026-04-24 20:36 | 56.20782 | 43.77770 | 450 ft | 132 kts | 8° |
| 2026-04-24 20:36 | 56.21676 | 43.78086 | 283 ft | 128 kts | 9° |
| 2026-04-24 20:36 | 56.22425 | 43.78355 | 266 ft | 86 kts | 11° |
| 2026-04-24 20:37 | 56.22840 | 43.78510 | 266 ft | 47 kts | 13° |
| 2026-04-24 20:37 | 56.23133 | 43.78633 | 269 ft | 42 kts | 10° |
| 2026-04-24 20:37 | 56.23413 | 43.78731 | 266 ft | 40 kts | 12° |
| 2026-04-24 20:37 | 56.23675 | 43.78837 | 265 ft | 37 kts | 12° |
| 2026-04-24 20:38 | 56.23922 | 43.78924 | 267 ft | 35 kts | 11° |
| 2026-04-24 20:38 | 56.24103 | 43.79015 | 268 ft | 19 kts | 41° |
| 2026-04-24 20:38 | 56.24087 | 43.79183 | 266 ft | 14 kts | 125° |
| 2026-04-24 20:38 | 56.24081 | 43.79196 | 266 ft | 0 kts | 129° |
| 2026-04-24 20:39 | 56.24023 | 43.79279 | 266 ft | 23 kts | 163° |
| 2026-04-24 20:39 | 56.23859 | 43.79267 | 266 ft | 24 kts | 184° |
| 2026-04-24 20:39 | 56.23695 | 43.79247 | 266 ft | 23 kts | 184° |
| 2026-04-24 20:39 | 56.23541 | 43.79232 | 266 ft | 21 kts | 183° |
| 2026-04-24 20:40 | 56.23404 | 43.79194 | 266 ft | 19 kts | 189° |
| 2026-04-24 20:40 | 56.23278 | 43.79151 | 266 ft | 17 kts | 193° |
| 2026-04-24 20:40 | 56.23168 | 43.79108 | 266 ft | 15 kts | 192° |
| 2026-04-24 20:40 | 56.23069 | 43.79072 | 266 ft | 14 kts | 192° |
| 2026-04-24 20:41 | 56.22980 | 43.79040 | 266 ft | 12 kts | 191° |
| 2026-04-24 20:41 | 56.22901 | 43.79013 | 266 ft | 11 kts | 191° |
| 2026-04-24 20:41 | 56.22821 | 43.78983 | 266 ft | 16 kts | 192° |
| 2026-04-24 20:41 | 56.22717 | 43.78944 | 266 ft | 15 kts | 191° |
| 2026-04-24 20:42 | 56.22622 | 43.78911 | 266 ft | 13 kts | 191° |
| 2026-04-24 20:42 | 56.22537 | 43.78880 | 266 ft | 12 kts | 191° |
| 2026-04-24 20:42 | 56.22463 | 43.78850 | 266 ft | 10 kts | 199° |
| 2026-04-24 20:42 | 56.22379 | 43.78795 | 266 ft | 13 kts | 191° |
| 2026-04-24 20:43 | 56.22293 | 43.78766 | 266 ft | 12 kts | 190° |
| 2026-04-24 20:43 | 56.22217 | 43.78739 | 266 ft | 11 kts | 191° |
| 2026-04-24 20:43 | 56.22153 | 43.78763 | 266 ft | 9 kts | 152° |
| 2026-04-24 20:43 | 56.22103 | 43.78816 | 266 ft | 8 kts | 155° |
| 2026-04-24 20:44 | 56.22058 | 43.78810 | 266 ft | 6 kts | 192° |
| 2026-04-24 20:44 | 56.22034 | 43.78816 | 266 ft | 5 kts | 155° |
| 2026-04-24 20:44 | 56.22025 | 43.78848 | 266 ft | 0 kts | 107° |